createdAt,value
2018-03-21T00:01:27.134Z,102396.34
2018-03-21T00:03:55.757Z,102401.59
2018-03-21T00:06:24.403Z,102396.34
2018-03-21T00:08:52.958Z,102404.66
2018-03-21T00:11:21.515Z,102407.30
2018-03-21T00:13:50.029Z,102410.81
2018-03-21T00:16:18.848Z,102408.64
2018-03-21T00:18:47.487Z,102406.00
2018-03-21T00:21:15.975Z,102411.70
2018-03-21T00:23:44.567Z,102411.72
2018-03-21T00:26:13.074Z,102415.66
2018-03-21T00:28:41.630Z,102414.79
2018-03-21T00:31:10.245Z,102413.48
2018-03-21T00:33:39.030Z,102406.93
2018-03-21T00:36:07.549Z,102407.79
2018-03-21T00:38:36.056Z,102410.86
2018-03-21T00:41:04.512Z,102409.97
2018-03-21T00:43:33.198Z,102413.50
2018-03-21T00:46:01.911Z,102409.98
2018-03-21T00:48:30.395Z,102407.82
2018-03-21T00:50:58.882Z,102417.43
2018-03-21T00:53:27.528Z,102411.34
2018-03-21T00:55:56.114Z,102410.44
2018-03-21T00:58:24.780Z,102416.61
2018-03-21T01:00:53.362Z,102413.53
2018-03-21T01:03:21.831Z,102419.25
2018-03-21T01:05:50.350Z,102417.48
2018-03-21T01:08:18.937Z,102418.36
2018-03-21T01:10:47.550Z,102417.03
2018-03-21T01:13:16.281Z,102411.80
2018-03-21T01:15:45.125Z,102411.78
2018-03-21T01:18:14.470Z,102416.59
2018-03-21T01:20:43.078Z,102412.23
2018-03-21T01:23:11.617Z,102411.35
2018-03-21T01:25:40.067Z,102413.55
2018-03-21T01:28:09.603Z,102411.36
2018-03-21T01:30:38.113Z,102410.03
2018-03-21T01:33:06.640Z,102406.53
2018-03-21T01:35:35.223Z,102408.73
2018-03-21T01:38:03.947Z,102414.42
2018-03-21T01:40:32.451Z,102417.03
2018-03-21T01:43:01.997Z,102418.78
2018-03-21T01:45:30.532Z,102413.09
2018-03-21T01:47:59.014Z,102410.02
2018-03-21T01:50:38.395Z,102410.91
2018-03-21T01:53:10.900Z,102406.98
2018-03-21T01:55:39.486Z,102403.03
2018-03-21T01:58:07.968Z,102404.78
2018-03-21T02:00:36.417Z,102405.66
2018-03-21T02:03:04.994Z,102403.05
2018-03-21T02:05:33.530Z,102403.92
2018-03-21T02:08:01.946Z,102397.78
2018-03-21T02:10:30.438Z,102397.34
2018-03-21T02:12:59.055Z,102399.11
2018-03-21T02:15:27.875Z,102395.61
2018-03-21T02:17:56.414Z,102393.41
2018-03-21T02:20:24.941Z,102396.04
2018-03-21T02:22:53.383Z,102389.92
2018-03-21T02:25:21.982Z,102394.73
2018-03-21T02:27:50.488Z,102384.23
2018-03-21T02:30:19.172Z,102382.93
2018-03-21T02:32:47.793Z,102385.97
2018-03-21T02:35:16.296Z,102385.53
2018-03-21T02:37:44.828Z,102383.80
2018-03-21T02:40:13.387Z,102380.73
2018-03-21T02:42:41.830Z,102385.11
2018-03-21T02:45:10.288Z,102381.17
2018-03-21T02:47:38.787Z,102388.16
2018-03-21T02:50:07.368Z,102380.71
2018-03-21T02:52:36.091Z,102383.77
2018-03-21T02:55:04.676Z,102385.95
2018-03-21T02:57:33.251Z,102384.64
2018-03-21T03:00:01.689Z,102386.80
2018-03-21T03:02:30.301Z,102386.81
2018-03-21T03:04:58.777Z,102383.75
2018-03-21T03:07:27.242Z,102389.87
2018-03-21T03:09:55.848Z,102387.22
2018-03-21T03:12:24.555Z,102389.41
2018-03-21T03:14:53.106Z,102388.97
2018-03-21T03:17:21.895Z,102389.87
2018-03-21T03:19:50.581Z,102385.93
2018-03-21T03:22:20.131Z,102384.18
2018-03-21T03:24:48.875Z,102384.19
2018-03-21T03:27:17.400Z,102381.98
2018-03-21T03:29:45.949Z,102371.92
2018-03-21T03:32:14.471Z,102376.30
2018-03-21T03:34:43.013Z,102380.69
2018-03-21T03:37:11.432Z,102373.69
2018-03-21T03:39:39.946Z,102375.00
2018-03-21T03:42:08.464Z,102385.94
2018-03-21T03:44:36.947Z,102381.12
2018-03-21T03:47:05.625Z,102379.80
2018-03-21T03:49:34.049Z,102375.47
2018-03-21T03:52:02.569Z,102375.02
2018-03-21T03:54:31.201Z,102375.02
2018-03-21T03:56:59.776Z,102368.88
2018-03-21T03:59:28.247Z,102366.70
2018-03-21T04:01:57.746Z,102366.26
2018-03-21T04:04:26.202Z,102373.27
2018-03-21T04:06:54.683Z,102369.78
2018-03-21T04:09:23.300Z,102373.25
2018-03-21T04:11:51.844Z,102374.55
2018-03-21T04:14:24.474Z,102365.37
2018-03-21T04:16:53.047Z,102366.22
2018-03-21T04:19:21.735Z,102365.78
2018-03-21T04:21:50.533Z,102365.75
2018-03-21T04:24:19.410Z,102367.06
2018-03-21T04:26:48.011Z,102360.97
2018-03-21T04:29:16.618Z,102352.66
2018-03-21T04:31:45.194Z,102353.56
2018-03-21T04:34:13.885Z,102358.37
2018-03-21T04:36:42.572Z,102354.44
2018-03-21T04:39:11.130Z,102364.05
2018-03-21T04:41:39.855Z,102356.20
2018-03-21T04:44:08.395Z,102358.39
2018-03-21T04:46:36.979Z,102354.91
2018-03-21T04:49:05.538Z,102359.25
2018-03-21T04:51:34.059Z,102359.70
2018-03-21T04:54:02.609Z,102357.50
2018-03-21T04:56:31.080Z,102356.20
2018-03-21T04:58:59.670Z,102350.52
2018-03-21T05:01:28.192Z,102356.63
2018-03-21T05:03:56.876Z,102347.02
2018-03-21T05:06:25.441Z,102351.38
2018-03-21T05:08:53.939Z,102342.20
2018-03-21T05:11:22.423Z,102340.03
2018-03-21T05:13:51.162Z,102336.96
2018-03-21T05:16:20.055Z,102337.39
2018-03-21T05:18:48.757Z,102343.09
2018-03-21T05:21:17.763Z,102329.09
2018-03-21T05:23:46.321Z,102332.59
2018-03-21T05:26:15.075Z,102341.31
2018-03-21T05:28:44.171Z,102344.81
2018-03-21T05:31:12.932Z,102341.32
2018-03-21T05:33:41.594Z,102336.95
2018-03-21T05:36:10.156Z,102335.61
2018-03-21T05:38:38.945Z,102343.05
2018-03-21T05:41:07.527Z,102344.79
2018-03-21T05:43:36.100Z,102346.55
2018-03-21T05:46:05.341Z,102354.84
2018-03-21T05:48:34.717Z,102363.18
2018-03-21T05:51:03.498Z,102357.06
2018-03-21T05:53:32.109Z,102362.75
2018-03-21T05:56:00.575Z,102360.56
2018-03-21T05:58:29.152Z,102356.19
2018-03-21T06:00:57.758Z,102345.28
2018-03-21T06:03:26.318Z,102340.02
2018-03-21T06:05:54.906Z,102340.88
2018-03-21T06:08:23.490Z,102343.10
2018-03-21T06:10:51.972Z,102337.41
2018-03-21T06:13:20.658Z,102336.11
2018-03-21T06:15:49.253Z,102330.82
2018-03-21T06:18:17.826Z,102331.26
2018-03-21T06:20:46.554Z,102326.84
2018-03-21T06:23:15.151Z,102333.40
2018-03-21T06:25:43.759Z,102338.63
2018-03-21T06:28:14.412Z,102346.50
2018-03-21T06:30:43.044Z,102339.52
2018-03-21T06:33:11.477Z,102337.75
2018-03-21T06:35:40.097Z,102350.02
2018-03-21T06:38:09.023Z,102342.09
2018-03-21T06:40:45.113Z,102343.37
2018-03-21T06:43:13.740Z,102342.50
2018-03-21T06:45:42.501Z,102338.95
2018-03-21T06:48:11.067Z,102337.19
2018-03-21T06:50:40.411Z,102342.84
2018-03-21T06:53:08.968Z,102345.00
2018-03-21T06:55:37.642Z,102336.20
2018-03-21T06:58:06.134Z,102333.98
2018-03-21T07:00:34.704Z,102334.34
2018-03-21T07:03:03.419Z,102330.76
2018-03-21T07:05:31.889Z,102325.35
2018-03-21T07:08:00.365Z,102327.84
2018-03-21T07:10:28.989Z,102325.91
2018-03-21T07:12:57.535Z,102331.56
2018-03-21T07:15:37.793Z,102331.56
2018-03-21T07:18:14.203Z,102336.02
2018-03-21T07:20:42.855Z,102339.95
2018-03-21T07:23:11.422Z,102338.14
2018-03-21T07:25:39.996Z,102340.64
2018-03-21T07:28:08.784Z,102341.87
2018-03-21T07:30:37.236Z,102339.13
2018-03-21T07:33:05.706Z,102327.16
2018-03-21T07:35:34.401Z,102327.38
2018-03-21T07:38:02.922Z,102325.44
2018-03-21T07:40:31.568Z,102315.06
2018-03-21T07:43:00.113Z,102322.27
2018-03-21T07:45:28.973Z,102322.39
2018-03-21T07:47:57.502Z,102318.14
2018-03-21T07:50:26.014Z,102322.48
2018-03-21T07:52:54.548Z,102325.04
2018-03-21T07:55:23.102Z,102322.11
2018-03-21T07:57:51.687Z,102311.02
2018-03-21T08:00:20.317Z,102318.80
2018-03-21T08:02:48.980Z,102309.12
2018-03-21T08:05:17.876Z,102304.09
2018-03-21T08:07:46.634Z,102309.37
2018-03-21T08:10:15.333Z,102309.63
2018-03-21T08:12:44.512Z,102314.30
2018-03-21T08:15:13.099Z,102309.46
2018-03-21T08:17:41.650Z,102311.95
2018-03-21T08:20:10.273Z,102305.03
2018-03-21T08:22:38.768Z,102315.26
2018-03-21T08:25:07.293Z,102314.98
2018-03-21T08:27:35.914Z,102320.36
2018-03-21T08:30:04.476Z,102310.91
2018-03-21T08:32:33.021Z,102309.69
2018-03-21T08:35:01.563Z,102305.80
2018-03-21T08:37:30.142Z,102308.50
2018-03-21T08:39:58.832Z,102305.27
2018-03-21T08:42:27.414Z,102298.58
2018-03-21T08:44:56.033Z,102307.47
2018-03-21T08:47:24.796Z,102302.50
2018-03-21T08:49:53.577Z,102309.43
2018-03-21T08:52:22.310Z,102297.24
2018-03-21T08:54:50.980Z,102305.75
2018-03-21T08:57:20.051Z,102299.07
2018-03-21T08:59:48.746Z,102307.07
2018-03-21T09:02:17.288Z,102307.47
2018-03-21T09:04:46.008Z,102316.59
2018-03-21T09:07:14.612Z,102311.02
2018-03-21T09:09:44.045Z,102312.40
2018-03-21T09:12:13.800Z,102309.94
2018-03-21T09:14:42.313Z,102310.95
2018-03-21T09:17:10.871Z,102318.00
2018-03-21T09:19:39.392Z,102306.93
2018-03-21T09:22:08.062Z,102302.25
2018-03-21T09:24:37.458Z,102298.75
2018-03-21T09:27:06.864Z,102303.68
2018-03-21T09:29:35.427Z,102299.31
2018-03-21T09:32:04.645Z,102300.45
2018-03-21T09:34:33.248Z,102288.08
2018-03-21T09:37:01.898Z,102296.28
2018-03-21T09:39:31.499Z,102291.84
2018-03-21T09:42:00.520Z,102279.02
2018-03-21T09:44:29.140Z,102271.19
2018-03-21T09:46:57.755Z,102274.68
2018-03-21T09:49:26.820Z,102271.74
2018-03-21T09:51:55.648Z,102265.02
2018-03-21T09:54:25.026Z,102266.47
2018-03-21T09:56:57.756Z,102254.13
2018-03-21T09:59:26.272Z,102261.03
2018-03-21T10:01:54.877Z,102257.61
2018-03-21T10:04:23.750Z,102253.98
2018-03-21T10:06:52.333Z,102258.89
2018-03-21T10:09:20.837Z,102259.33
2018-03-21T10:11:49.418Z,102259.84
2018-03-21T10:14:18.137Z,102252.59
2018-03-21T10:16:46.661Z,102249.62
2018-03-21T10:19:15.552Z,102252.82
2018-03-21T10:21:44.293Z,102248.88
2018-03-21T10:24:13.130Z,102246.99
2018-03-21T10:26:41.919Z,102251.86
2018-03-21T10:29:10.388Z,102244.22
2018-03-21T10:31:39.004Z,102242.53
2018-03-21T10:34:07.506Z,102238.91
2018-03-21T10:36:35.993Z,102232.45
2018-03-21T10:39:04.518Z,102230.87
2018-03-21T10:41:33.031Z,102232.88
2018-03-21T10:44:01.593Z,102225.11
2018-03-21T10:46:30.175Z,102224.25
2018-03-21T10:48:58.656Z,102224.36
2018-03-21T10:51:27.084Z,102217.66
2018-03-21T10:53:55.802Z,102212.52
2018-03-21T10:56:25.534Z,102212.68
2018-03-21T10:58:54.120Z,102213.30
2018-03-21T11:01:28.165Z,102215.42
2018-03-21T11:03:56.658Z,102211.20
2018-03-21T11:06:25.319Z,102210.26
2018-03-21T11:08:54.110Z,102212.61
2018-03-21T11:11:22.857Z,102208.76
2018-03-21T11:13:51.562Z,102225.22
2018-03-21T11:16:20.273Z,102223.48
2018-03-21T11:18:49.055Z,102229.23
2018-03-21T11:21:17.742Z,102228.17
2018-03-21T11:23:46.431Z,102229.95
2018-03-21T11:26:15.289Z,102220.86
2018-03-21T11:28:44.033Z,102219.56
2018-03-21T11:31:12.648Z,102212.70
2018-03-21T11:33:41.214Z,102217.88
2018-03-21T11:36:09.887Z,102212.42
2018-03-21T11:38:38.521Z,102211.55
2018-03-21T11:41:07.052Z,102217.48
2018-03-21T11:43:35.628Z,102219.03
2018-03-21T11:46:04.109Z,102216.05
2018-03-21T11:48:32.889Z,102210.01
2018-03-21T11:51:01.369Z,102208.77
2018-03-21T11:53:30.291Z,102212.59
2018-03-21T11:55:59.170Z,102208.30
2018-03-21T11:58:27.887Z,102217.12
2018-03-21T12:00:56.934Z,102218.50
2018-03-21T12:03:25.712Z,102208.21
2018-03-21T12:05:54.374Z,102209.17
2018-03-21T12:08:23.012Z,102198.41
2018-03-21T12:10:51.672Z,102202.39
2018-03-21T12:13:21.209Z,102194.68
2018-03-21T12:15:50.038Z,102191.67
2018-03-21T12:18:18.956Z,102189.81
2018-03-21T12:20:47.704Z,102185.92
2018-03-21T12:23:16.713Z,102179.80
2018-03-21T12:25:45.660Z,102174.44
2018-03-21T12:28:14.343Z,102180.72
2018-03-21T12:30:43.571Z,102177.02
2018-03-21T12:33:12.208Z,102165.72
2018-03-21T12:35:40.864Z,102159.24
2018-03-21T12:38:09.696Z,102162.63
2018-03-21T12:40:38.208Z,102158.63
2018-03-21T12:43:06.726Z,102160.27
2018-03-21T12:45:35.265Z,102155.06
2018-03-21T12:48:03.907Z,102154.50
2018-03-21T12:50:32.489Z,102153.98
2018-03-21T12:53:01.121Z,102152.52
2018-03-21T12:55:29.655Z,102145.80
2018-03-21T12:57:58.412Z,102143.39
2018-03-21T13:00:26.958Z,102141.91
2018-03-21T13:02:55.562Z,102141.67
2018-03-21T13:05:24.313Z,102130.22
2018-03-21T13:07:53.045Z,102133.38
2018-03-21T13:10:21.538Z,102127.23
2018-03-21T13:12:50.202Z,102129.55
2018-03-21T13:15:19.446Z,102134.28
2018-03-21T13:17:48.105Z,102132.65
2018-03-21T13:20:16.855Z,102122.48
2018-03-21T13:22:46.455Z,102129.40
2018-03-21T13:25:15.803Z,102118.59
2018-03-21T13:27:45.308Z,102128.25
2018-03-21T13:30:14.098Z,102122.90
2018-03-21T13:32:42.619Z,102116.62
2018-03-21T13:35:11.136Z,102117.44
2018-03-21T13:37:40.013Z,102118.45
2018-03-21T13:40:08.800Z,102115.03
2018-03-21T13:42:37.308Z,102110.19
2018-03-21T13:45:05.890Z,102109.62
2018-03-21T13:47:34.422Z,102110.64
2018-03-21T13:50:03.031Z,102118.38
2018-03-21T13:52:31.638Z,102110.73
2018-03-21T13:55:00.308Z,102106.70
2018-03-21T13:57:32.224Z,102119.29
2018-03-21T14:00:02.241Z,102108.30
2018-03-21T14:02:30.841Z,102105.13
2018-03-21T14:04:59.637Z,102103.34
2018-03-21T14:07:28.210Z,102102.03
2018-03-21T14:09:56.802Z,102101.97
2018-03-21T14:12:25.482Z,102102.44
2018-03-21T14:14:54.168Z,102103.72
2018-03-21T14:17:22.998Z,102094.63
2018-03-21T14:19:52.399Z,102095.20
2018-03-21T14:22:21.115Z,102091.39
2018-03-21T14:24:49.772Z,102097.92
2018-03-21T14:27:18.867Z,102103.80
2018-03-21T14:29:47.556Z,102089.73
2018-03-21T14:32:16.090Z,102088.20
2018-03-21T14:34:44.942Z,102089.75
2018-03-21T14:37:14.269Z,102087.75
2018-03-21T14:39:42.829Z,102082.21
2018-03-21T14:42:11.495Z,102091.65
2018-03-21T14:44:40.138Z,102082.55
2018-03-21T14:47:08.664Z,102098.83
2018-03-21T14:49:37.487Z,102078.67
2018-03-21T14:52:06.406Z,102082.12
2018-03-21T14:54:34.921Z,102080.85
2018-03-21T14:57:03.421Z,102080.83
2018-03-21T14:59:32.242Z,102074.55
2018-03-21T15:02:00.678Z,102074.74
2018-03-21T15:04:29.255Z,102060.45
2018-03-21T15:06:57.850Z,102057.42
2018-03-21T15:09:26.480Z,102049.00
2018-03-21T15:11:55.208Z,102050.77
2018-03-21T15:14:24.032Z,102053.79
2018-03-21T15:16:52.717Z,102046.87
2018-03-21T15:19:21.527Z,102050.67
2018-03-21T15:21:50.174Z,102055.06
2018-03-21T15:24:18.945Z,102053.05
2018-03-21T15:26:47.686Z,102052.42
2018-03-21T15:29:16.292Z,102046.00
2018-03-21T15:31:44.908Z,102046.43
2018-03-21T15:34:13.452Z,102042.97
2018-03-21T15:36:42.227Z,102052.17
2018-03-21T15:39:11.338Z,102038.77
2018-03-21T15:41:41.841Z,102036.75
2018-03-21T15:44:15.055Z,102041.11
2018-03-21T15:49:36.639Z,102044.34
2018-03-21T15:52:05.206Z,102036.94
2018-03-21T15:54:33.674Z,102034.95
2018-03-21T15:57:02.225Z,102031.56
2018-03-21T15:59:30.783Z,102036.32
2018-03-21T16:01:59.359Z,102031.76
2018-03-21T16:04:28.607Z,102030.52
2018-03-21T16:06:57.590Z,102024.34
2018-03-21T16:09:26.594Z,102031.02
2018-03-21T16:11:55.846Z,102015.23
2018-03-21T16:14:24.538Z,102026.05
2018-03-21T16:16:53.493Z,102021.42
2018-03-21T16:19:23.191Z,102020.39
2018-03-21T16:21:51.812Z,102015.94
2018-03-21T16:24:20.871Z,102017.37
2018-03-21T16:26:49.685Z,102012.67
2018-03-21T16:29:18.784Z,102017.67
2018-03-21T16:31:47.871Z,102019.86
2018-03-21T16:34:16.883Z,102020.63
2018-03-21T16:36:45.718Z,102017.22
2018-03-21T16:39:14.620Z,102010.56
2018-03-21T16:41:43.298Z,102011.96
2018-03-21T16:44:11.818Z,102014.46
2018-03-21T16:46:40.565Z,102010.45
2018-03-21T16:49:09.139Z,102009.67
2018-03-21T16:51:37.635Z,102003.17
2018-03-21T16:54:06.156Z,102006.00
2018-03-21T16:56:34.759Z,101999.87
2018-03-21T16:59:03.348Z,101998.45
2018-03-21T17:01:31.933Z,102004.05
2018-03-21T17:04:00.688Z,101997.84
2018-03-21T17:06:29.334Z,102003.27
2018-03-21T17:08:57.944Z,102005.70
2018-03-21T17:11:27.064Z,102001.88
2018-03-21T17:13:55.769Z,101999.23
2018-03-21T17:16:25.515Z,102005.83
2018-03-21T17:18:54.230Z,101989.66
2018-03-21T17:21:23.235Z,101999.37
2018-03-21T17:23:51.813Z,101996.72
2018-03-21T17:26:20.456Z,101998.63
2018-03-21T17:28:49.095Z,101984.76
2018-03-21T17:31:17.658Z,101986.11
2018-03-21T17:33:48.688Z,101964.72
2018-03-21T17:36:17.190Z,101958.82
2018-03-21T17:38:45.979Z,101972.59
2018-03-21T17:41:14.824Z,101969.22
2018-03-21T17:43:43.620Z,101971.58
2018-03-21T17:46:12.458Z,101968.52
2018-03-21T17:48:41.030Z,101962.74
2018-03-21T17:51:24.739Z,101963.10
2018-03-21T17:54:00.692Z,101956.91
2018-03-21T17:56:31.969Z,101960.14
2018-03-21T17:59:00.607Z,101955.54
2018-03-21T18:01:29.391Z,101956.57
2018-03-21T18:03:58.205Z,101960.72
2018-03-21T18:06:26.996Z,101962.73
2018-03-21T18:08:55.621Z,101962.70
2018-03-21T18:11:24.102Z,101957.31
2018-03-21T18:13:52.700Z,101959.26
2018-03-21T18:16:21.377Z,101962.36
2018-03-21T18:18:49.978Z,101958.84
2018-03-21T18:21:18.616Z,101965.90
2018-03-21T18:23:47.478Z,101963.14
2018-03-21T18:26:16.229Z,101960.92
2018-03-21T18:28:44.849Z,101957.11
2018-03-21T18:31:13.871Z,101953.05
2018-03-21T18:33:42.351Z,101950.70
2018-03-21T18:36:10.962Z,101946.20
2018-03-21T18:38:41.852Z,101939.98
2018-03-21T18:41:10.358Z,101939.93
2018-03-21T18:43:38.972Z,101940.53
2018-03-21T18:46:07.474Z,101941.83
2018-03-21T18:48:36.167Z,101937.88
2018-03-21T18:51:04.740Z,101941.42
2018-03-21T18:53:33.265Z,101931.04
2018-03-21T18:56:01.873Z,101935.73
2018-03-21T18:58:30.703Z,101932.42
2018-03-21T19:00:59.387Z,101938.29
2018-03-21T19:03:28.283Z,101931.68
2018-03-21T19:05:57.201Z,101923.42
2018-03-21T19:08:25.962Z,101929.95
2018-03-21T19:10:54.918Z,101914.49
2018-03-21T19:13:23.743Z,101917.66
2018-03-21T19:15:52.643Z,101912.02
2018-03-21T19:18:21.463Z,101916.61
2018-03-21T19:20:50.487Z,101907.41
2018-03-21T19:23:19.662Z,101905.63
2018-03-21T19:25:48.724Z,101894.59
2018-03-21T19:28:17.308Z,101897.98
2018-03-21T19:30:45.882Z,101888.32
2018-03-21T19:33:14.634Z,101886.59
2018-03-21T19:35:43.567Z,101888.02
2018-03-21T19:38:12.082Z,101877.92
2018-03-21T19:40:40.644Z,101875.33
2018-03-21T19:43:09.108Z,101869.82
2018-03-21T19:45:37.600Z,101870.80
2018-03-21T19:48:06.267Z,101866.39
2018-03-21T19:50:34.786Z,101867.73
2018-03-21T19:53:03.282Z,101858.12
2018-03-21T19:55:31.891Z,101855.11
2018-03-21T19:58:00.637Z,101855.20
2018-03-21T20:00:29.429Z,101852.20
2018-03-21T20:02:58.007Z,101847.59
2018-03-21T20:05:26.975Z,101844.89
2018-03-21T20:07:56.158Z,101838.33
2018-03-21T20:10:25.099Z,101840.93
2018-03-21T20:12:54.089Z,101830.70
2018-03-21T20:15:22.984Z,101828.42
2018-03-21T20:17:51.929Z,101814.86
2018-03-21T20:20:20.772Z,101816.20
2018-03-21T20:22:49.527Z,101810.55
2018-03-21T20:25:18.548Z,101800.43
2018-03-21T20:27:47.722Z,101795.23
2018-03-21T20:30:16.703Z,101785.05
2018-03-21T20:32:45.739Z,101789.90
2018-03-21T20:35:14.640Z,101781.52
2018-03-21T20:37:43.269Z,101762.41
2018-03-21T20:40:11.737Z,101766.61
2018-03-21T20:42:40.899Z,101754.98
2018-03-21T20:45:09.477Z,101757.73
2018-03-21T20:47:38.658Z,101746.56
2018-03-21T20:50:07.102Z,101746.00
2018-03-21T20:52:35.617Z,101740.76
2018-03-21T20:55:04.774Z,101742.23
2018-03-21T20:57:33.576Z,101730.59
2018-03-21T21:00:02.333Z,101727.91
2018-03-21T21:02:30.937Z,101720.32
2018-03-21T21:05:00.088Z,101708.35
2018-03-21T21:07:28.710Z,101710.44
2018-03-21T21:09:57.431Z,101707.59
2018-03-21T21:12:26.513Z,101697.42
2018-03-21T21:14:55.277Z,101692.70
2018-03-21T21:17:24.191Z,101690.73
2018-03-21T21:19:53.009Z,101677.20
2018-03-21T21:22:21.810Z,101677.59
2018-03-21T21:24:50.339Z,101675.11
2018-03-21T21:27:19.167Z,101676.00
2018-03-21T21:29:51.743Z,101673.48
2018-03-21T21:32:20.326Z,101663.98
2018-03-21T21:34:49.540Z,101650.51
2018-03-21T21:37:18.626Z,101652.28
2018-03-21T21:39:47.284Z,101656.77
2018-03-21T21:42:16.099Z,101646.63
2018-03-21T21:44:45.199Z,101652.16
2018-03-21T21:47:13.982Z,101641.23
2018-03-21T21:49:42.578Z,101643.63
2018-03-21T21:52:11.244Z,101634.38
2018-03-21T21:54:39.829Z,101632.92
2018-03-21T21:57:08.351Z,101622.39
2018-03-21T21:59:37.014Z,101614.84
2018-03-21T22:02:05.477Z,101610.91
2018-03-21T22:04:34.034Z,101607.33
2018-03-21T22:07:03.743Z,101598.92
2018-03-21T22:09:32.233Z,101590.41
2018-03-21T22:12:01.023Z,101589.95
2018-03-21T22:14:29.770Z,101582.72
2018-03-21T22:16:58.405Z,101585.82
2018-03-21T22:19:27.123Z,101573.02
2018-03-21T22:21:55.852Z,101571.56
2018-03-21T22:24:24.614Z,101568.11
2018-03-21T22:26:53.534Z,101563.79
2018-03-21T22:29:22.422Z,101564.80
2018-03-21T22:31:51.454Z,101539.82
2018-03-21T22:34:20.035Z,101543.41
2018-03-21T22:36:49.645Z,101540.81
2018-03-21T22:39:18.538Z,101539.88
2018-03-21T22:41:47.198Z,101532.84
2018-03-21T22:44:15.972Z,101517.53
2018-03-21T22:46:45.168Z,101522.33
2018-03-21T22:49:13.757Z,101516.16
2018-03-21T22:51:42.639Z,101513.98
2018-03-21T22:54:11.267Z,101506.96
2018-03-21T22:56:39.915Z,101492.00
2018-03-21T23:01:48.953Z,101487.81
2018-03-21T23:04:18.071Z,101480.39
2018-03-21T23:06:46.668Z,101469.77
2018-03-21T23:09:15.699Z,101468.45
2018-03-21T23:11:45.699Z,101468.06
2018-03-21T23:14:14.351Z,101466.22
2018-03-21T23:16:43.468Z,101465.33
2018-03-21T23:19:11.985Z,101466.24
2018-03-21T23:21:40.706Z,101460.95
2018-03-21T23:24:09.285Z,101457.86
2018-03-21T23:26:37.820Z,101460.27
2018-03-21T23:29:06.353Z,101452.73
2018-03-21T23:31:34.993Z,101446.17
2018-03-21T23:34:04.133Z,101440.03
2018-03-21T23:36:32.726Z,101435.69
2018-03-21T23:39:01.618Z,101424.15
2018-03-21T23:41:30.217Z,101417.95
2018-03-21T23:43:58.896Z,101408.33
2018-03-21T23:46:27.490Z,101420.32
2018-03-21T23:48:56.254Z,101409.86
2018-03-21T23:51:25.075Z,101410.06
2018-03-21T23:53:53.824Z,101402.14
2018-03-21T23:56:22.509Z,101389.66
2018-03-21T23:58:51.091Z,101385.19
